createdAt,value
2023-01-02T00:01:41.983Z,64.77
2023-01-02T00:06:43.591Z,64.61
2023-01-02T00:11:45.234Z,64.05
2023-01-02T00:16:46.858Z,64.23
2023-01-02T00:21:48.476Z,63.91
2023-01-02T00:26:50.137Z,63.88
2023-01-02T00:31:51.746Z,64.16
2023-01-02T00:36:53.370Z,63.96
2023-01-02T00:41:54.970Z,63.97
2023-01-02T00:46:56.619Z,63.55
2023-01-02T00:51:58.288Z,63.42
2023-01-02T00:56:59.946Z,63.71
2023-01-02T01:02:01.673Z,63.02
2023-01-02T01:07:03.693Z,62.68
2023-01-02T01:12:05.466Z,62.16
2023-01-02T01:17:07.409Z,61.27
2023-01-02T01:22:09.040Z,61.04
2023-01-02T01:27:10.674Z,61.46
2023-01-02T01:32:12.319Z,61.04
2023-01-02T01:37:13.946Z,61.18
2023-01-02T01:42:16.310Z,61.20
2023-01-02T01:47:30.031Z,61.37
2023-01-02T01:52:33.957Z,61.60
2023-01-02T01:57:40.028Z,61.92
2023-01-02T02:02:42.773Z,61.46
2023-01-02T02:07:51.247Z,61.78
2023-01-02T02:12:52.888Z,61.23
2023-01-02T02:18:25.071Z,60.85
2023-01-02T02:24:06.215Z,60.79
2023-01-02T02:29:26.001Z,60.74
2023-01-02T02:34:27.584Z,60.86
2023-01-02T02:39:38.350Z,60.90
2023-01-02T02:45:07.592Z,61.12
2023-01-02T02:50:13.924Z,61.15
2023-01-02T02:55:20.437Z,60.49
2023-01-02T03:00:23.554Z,60.15
2023-01-02T03:05:38.359Z,60.02
2023-01-02T03:10:51.134Z,60.97
2023-01-02T03:16:28.670Z,61.03
2023-01-02T03:21:41.858Z,61.72
2023-01-02T03:26:45.419Z,62.08
2023-01-02T03:31:49.694Z,61.78
2023-01-02T03:36:55.011Z,62.17
2023-01-02T03:42:00.476Z,62.22
2023-01-02T03:47:31.670Z,62.26
2023-01-02T03:52:33.401Z,61.58
2023-01-02T03:57:44.322Z,61.24
2023-01-02T04:02:52.094Z,60.87
2023-01-02T04:08:00.389Z,60.42
2023-01-02T04:13:07.242Z,60.23
2023-01-02T04:18:11.533Z,60.54
2023-01-02T04:23:20.211Z,60.14
2023-01-02T04:28:27.294Z,60.15
2023-01-02T04:33:29.954Z,59.60
2023-01-02T04:38:31.557Z,60.16
2023-01-02T04:43:33.698Z,60.12
2023-01-02T04:48:35.321Z,60.40
2023-01-02T04:53:36.944Z,60.53
2023-01-02T04:58:38.564Z,60.32
2023-01-02T05:03:41.142Z,60.86
2023-01-02T05:08:42.928Z,60.94
2023-01-02T05:13:45.420Z,61.00
2023-01-02T05:18:47.052Z,61.01
2023-01-02T05:23:48.655Z,61.38
2023-01-02T05:28:53.092Z,61.44
2023-01-02T05:33:55.732Z,61.82
2023-01-02T05:38:57.477Z,61.97
2023-01-02T05:43:59.111Z,62.13
2023-01-02T05:49:01.181Z,62.19
2023-01-02T05:54:03.131Z,62.50
2023-01-02T05:59:08.204Z,62.69
2023-01-02T06:04:11.676Z,63.24
2023-01-02T06:09:17.166Z,63.78
2023-01-02T06:14:19.008Z,64.26
2023-01-02T06:19:20.643Z,64.11
2023-01-02T06:24:22.329Z,63.96
2023-01-02T06:29:23.975Z,63.92
2023-01-02T06:34:25.643Z,64.07
2023-01-02T06:39:27.422Z,64.44
2023-01-02T06:44:29.130Z,65.10
2023-01-02T06:49:30.798Z,65.92
2023-01-02T06:54:33.175Z,66.13
2023-01-02T06:59:34.797Z,66.49
2023-01-02T07:04:36.449Z,67.07
2023-01-02T07:09:38.135Z,67.51
2023-01-02T07:14:40.219Z,67.87
2023-01-02T07:19:41.845Z,68.36
2023-01-02T07:24:43.457Z,68.77
2023-01-02T07:29:45.096Z,68.91
2023-01-02T07:34:46.691Z,68.97
2023-01-02T07:39:48.330Z,68.98
2023-01-02T07:44:49.948Z,69.12
2023-01-02T07:49:51.675Z,69.31
2023-01-02T07:54:53.300Z,69.12
2023-01-02T07:59:54.929Z,69.38
2023-01-02T08:04:56.562Z,69.48
2023-01-02T08:09:58.185Z,69.26
2023-01-02T08:15:00.355Z,69.61
2023-01-02T08:20:07.504Z,69.26
2023-01-02T08:25:10.474Z,69.37
2023-01-02T08:30:13.108Z,69.53
2023-01-02T08:35:14.820Z,69.53
2023-01-02T08:40:16.554Z,69.81
2023-01-02T08:45:18.208Z,69.21
2023-01-02T08:50:19.917Z,69.28
2023-01-02T08:55:21.562Z,68.94
2023-01-02T09:00:23.229Z,68.80
2023-01-02T09:05:24.993Z,68.55
2023-01-02T09:10:26.911Z,68.51
2023-01-02T09:15:29.023Z,68.78
2023-01-02T09:20:30.753Z,68.90
2023-01-02T09:25:32.487Z,68.16
2023-01-02T09:30:34.166Z,68.06
2023-01-02T09:35:35.832Z,68.42
2023-01-02T09:40:39.353Z,68.11
2023-01-02T09:45:43.943Z,67.94
2023-01-02T09:50:46.974Z,67.83
2023-01-02T09:56:22.373Z,67.67
2023-01-02T10:01:40.569Z,67.38
2023-01-02T10:07:05.283Z,67.69
2023-01-02T10:12:38.319Z,67.67
2023-01-02T10:17:46.268Z,67.82
2023-01-02T10:22:50.750Z,67.53
2023-01-02T10:28:07.944Z,67.59
2023-01-02T10:33:15.464Z,67.19
2023-01-02T10:38:19.366Z,67.21
2023-01-02T10:43:21.087Z,67.09
2023-01-02T10:48:25.224Z,67.63
2023-01-02T10:53:37.208Z,67.13
2023-01-02T10:58:45.908Z,67.09
2023-01-02T11:03:48.214Z,66.63
2023-01-02T11:09:18.809Z,67.24
2023-01-02T11:14:39.057Z,66.92
2023-01-02T11:19:51.826Z,66.91
2023-01-02T11:25:01.163Z,66.93
2023-01-02T11:30:04.861Z,67.21
2023-01-02T11:35:34.525Z,67.58
2023-01-02T11:40:36.174Z,67.41
2023-01-02T11:45:38.127Z,67.73
2023-01-02T11:50:40.205Z,67.83
2023-01-02T11:55:45.308Z,67.66
2023-01-02T12:00:49.728Z,67.50
2023-01-02T12:06:18.725Z,67.31
2023-01-02T12:11:35.104Z,66.85
2023-01-02T12:17:25.974Z,66.59
2023-01-02T12:22:47.691Z,66.32
2023-01-02T12:28:12.559Z,65.84
2023-01-02T12:33:46.337Z,65.93
2023-01-02T12:39:12.938Z,66.03
2023-01-02T12:44:31.546Z,65.72
2023-01-02T12:49:39.073Z,66.11
2023-01-02T12:54:52.886Z,66.02
2023-01-02T13:00:00.855Z,65.25
2023-01-02T13:05:09.135Z,65.42
2023-01-02T13:10:18.237Z,64.82
2023-01-02T13:15:22.467Z,64.63
2023-01-02T13:20:49.440Z,64.49
2023-01-02T13:25:59.674Z,64.29
2023-01-02T13:36:42.357Z,63.71
2023-01-02T13:42:12.185Z,64.07
2023-01-02T13:47:36.551Z,64.12
2023-01-02T13:52:40.171Z,64.10
2023-01-02T13:57:42.106Z,64.38
2023-01-02T14:03:22.789Z,64.64
2023-01-02T14:08:34.352Z,64.25
2023-01-02T14:13:40.296Z,64.25
2023-01-02T14:18:46.381Z,64.17
2023-01-02T14:24:18.156Z,64.21
2023-01-02T14:29:15.861Z,64.07
2023-01-02T14:34:25.672Z,64.24
2023-01-02T14:39:37.105Z,64.32
2023-01-02T14:44:47.836Z,64.64
2023-01-02T14:49:56.312Z,64.27
2023-01-02T14:55:06.105Z,64.38
2023-01-02T15:00:18.237Z,64.51
2023-01-02T15:05:32.148Z,64.40
2023-01-02T15:10:33.897Z,64.77
2023-01-02T15:15:41.657Z,64.96
2023-01-02T15:20:43.384Z,64.87
2023-01-02T15:25:45.051Z,64.99
2023-01-02T15:30:47.246Z,64.97
2023-01-02T15:35:54.928Z,64.27
2023-01-02T15:40:57.044Z,64.82
2023-01-02T15:45:59.017Z,63.42
2023-01-02T15:51:00.745Z,62.47
2023-01-02T15:56:02.436Z,60.35
2023-01-02T16:01:17.245Z,59.03
2023-01-02T16:06:24.481Z,58.19
2023-01-02T16:11:26.387Z,61.18
2023-01-02T16:16:41.708Z,62.59
2023-01-02T16:21:43.561Z,63.35
2023-01-02T16:26:45.717Z,61.70
2023-01-02T16:31:55.814Z,57.86
2023-01-02T16:37:36.650Z,55.94
2023-01-02T16:42:39.671Z,54.24
2023-01-02T16:47:43.041Z,54.19
2023-01-02T16:52:45.289Z,54.33
2023-01-02T16:57:50.408Z,54.83
2023-01-02T17:02:52.258Z,54.55
2023-01-02T17:07:54.117Z,53.96
2023-01-02T17:12:55.881Z,54.96
2023-01-02T17:17:57.631Z,55.32
2023-01-02T17:22:59.327Z,55.02
2023-01-02T17:28:01.024Z,55.64
2023-01-02T17:33:04.373Z,55.91
2023-01-02T17:38:06.248Z,55.98
2023-01-02T17:43:07.986Z,55.74
2023-01-02T17:48:12.263Z,56.16
2023-01-02T17:53:14.432Z,57.03
2023-01-02T17:58:16.097Z,57.15
2023-01-02T18:03:17.780Z,57.67
2023-01-02T18:08:19.448Z,56.87
2023-01-02T18:13:21.057Z,56.60
2023-01-02T18:18:24.718Z,57.12
2023-01-02T18:23:26.474Z,57.12
2023-01-02T18:28:28.140Z,57.54
2023-01-02T18:33:29.915Z,57.47
2023-01-02T18:38:35.031Z,57.22
2023-01-02T18:43:36.795Z,57.19
2023-01-02T18:48:39.445Z,57.53
2023-01-02T18:53:47.368Z,57.93
2023-01-02T18:59:15.364Z,58.24
2023-01-02T19:04:27.772Z,58.32
2023-01-02T19:09:35.324Z,58.39
2023-01-02T19:14:40.012Z,58.72
2023-01-02T19:19:41.683Z,59.00
2023-01-02T19:24:43.973Z,59.11
2023-01-02T19:29:48.744Z,59.30
2023-01-02T19:34:52.175Z,59.03
2023-01-02T19:39:55.585Z,58.48
2023-01-02T19:45:01.437Z,58.40
2023-01-02T19:50:03.661Z,59.02
2023-01-02T19:55:07.703Z,59.05
2023-01-02T20:00:12.844Z,59.70
2023-01-02T20:05:21.039Z,60.16
2023-01-02T20:10:23.850Z,63.55
2023-01-02T20:15:27.164Z,68.72
2023-01-02T20:20:29.636Z,75.24
2023-01-02T20:25:31.295Z,77.91
2023-01-02T20:30:33.014Z,80.84
2023-01-02T20:35:35.069Z,84.87
2023-01-02T20:40:36.761Z,87.29
2023-01-02T20:45:38.467Z,85.75
2023-01-02T20:50:40.353Z,87.17
2023-01-02T20:55:42.190Z,87.13
2023-01-02T21:00:43.875Z,88.55
2023-01-02T21:05:45.592Z,89.59
2023-01-02T21:10:47.359Z,90.38
2023-01-02T21:15:51.452Z,90.26
2023-01-02T21:20:55.992Z,90.24
2023-01-02T21:25:57.949Z,90.40
2023-01-02T21:31:00.508Z,89.45
2023-01-02T21:36:04.509Z,90.07
2023-01-02T21:41:24.523Z,89.89
2023-01-02T21:46:26.196Z,89.74
2023-01-02T21:51:32.974Z,90.08
2023-01-02T21:56:35.201Z,89.68
2023-01-02T22:01:36.990Z,89.13
2023-01-02T22:07:04.336Z,89.00
2023-01-02T22:12:02.081Z,88.54
2023-01-02T22:17:07.130Z,88.13
2023-01-02T22:22:08.912Z,87.22
2023-01-02T22:27:12.858Z,87.99
2023-01-02T22:32:15.204Z,88.28
2023-01-02T22:37:22.312Z,88.25
2023-01-02T22:48:08.737Z,88.19
2023-01-02T22:53:21.543Z,86.54
2023-01-02T22:58:24.366Z,86.49
2023-01-02T23:03:29.336Z,86.33
2023-01-02T23:08:34.123Z,85.94
2023-01-02T23:13:36.984Z,85.67
2023-01-02T23:18:57.444Z,84.71
2023-01-02T23:23:59.660Z,84.98
2023-01-02T23:29:06.917Z,84.72
2023-01-02T23:34:11.007Z,85.11
2023-01-02T23:39:16.649Z,84.78
2023-01-02T23:44:18.833Z,85.03
2023-01-02T23:49:23.370Z,84.98
2023-01-02T23:54:34.531Z,85.16
2023-01-02T23:59:36.140Z,85.09
